<?xml version="1.0" encoding="UTF-8" standalone="no" ?><gpx xmlns="http://www.topografix.com/GPX/1/1" xmlns:gpxx="http://www.garmin.com/xmlschemas/GpxExtensions/v3" xmlns:wptx1="http://www.garmin.com/xmlschemas/WaypointExtension/v1" xmlns:gpxtpx="http://www.garmin.com/xmlschemas/TrackPointExtension/v1" creator="GuideVTT.com" version="1.1" xmlns:xsi="http://www.w3.org/2001/XMLSchema-instance" xsi:schemaLocation="http://www.topografix.com/GPX/1/1 http://www.topografix.com/GPX/1/1/gpx.xsd http://www.garmin.com/xmlschemas/GpxExtensions/v3 http://www8.garmin.com/xmlschemas/GpxExtensionsv3.xsd http://www.garmin.com/xmlschemas/WaypointExtension/v1 http://www8.garmin.com/xmlschemas/WaypointExtensionv1.xsd http://www.garmin.com/xmlschemas/TrackPointExtension/v1 http://www.garmin.com/xmlschemas/TrackPointExtensionv1.xsd">
<metadata><link href="http://www.garmin.com"><text>Garmin International</text></link><time>2013-06-22T15:13:50Z</time></metadata>
<trk><name>opfelchuechliweg_grindelwald.gpx</name><extensions><gpxx:TrackExtension><gpxx:DisplayColor>Cyan</gpxx:DisplayColor></gpxx:TrackExtension></extensions><trkseg>
<trkpt lat="46.624585586" lon="8.033782113"><ele></ele><time>2013-7-24T11:16:18Z</time></trkpt>
<trkpt lat="46.624337481" lon="8.034784840"><ele></ele><time>2013-7-24T11:16:21Z</time></trkpt>
<trkpt lat="46.623528125" lon="8.034736728"><ele></ele><time>2013-7-24T11:16:24Z</time></trkpt>
<trkpt lat="46.623866167" lon="8.033735091"><ele></ele><time>2013-7-24T11:16:27Z</time></trkpt>
<trkpt lat="46.623224197" lon="8.032644270"><ele></ele><time>2013-7-24T11:16:30Z</time></trkpt>
<trkpt lat="46.622712314" lon="8.030745434"><ele></ele><time>2013-7-24T11:16:33Z</time></trkpt>
<trkpt lat="46.622398999" lon="8.030454749"><ele></ele><time>2013-7-24T11:16:36Z</time></trkpt>
<trkpt lat="46.621660218" lon="8.030668655"><ele></ele><time>2013-7-24T11:16:39Z</time></trkpt>
<trkpt lat="46.621618727" lon="8.029989218"><ele></ele><time>2013-7-24T11:16:42Z</time></trkpt>
<trkpt lat="46.621393925" lon="8.029973712"><ele></ele><time>2013-7-24T11:16:45Z</time></trkpt>
<trkpt lat="46.621099385" lon="8.029526621"><ele></ele><time>2013-7-24T11:16:48Z</time></trkpt>
<trkpt lat="46.620899308" lon="8.029955272"><ele></ele><time>2013-7-24T11:16:51Z</time></trkpt>
<trkpt lat="46.620644331" lon="8.030539993"><ele></ele><time>2013-7-24T11:16:54Z</time></trkpt>
<trkpt lat="46.619611178" lon="8.030280657"><ele></ele><time>2013-7-24T11:16:57Z</time></trkpt>
<trkpt lat="46.619488550" lon="8.029639525"><ele></ele><time>2013-7-24T11:17:0Z</time></trkpt>
<trkpt lat="46.618895531" lon="8.029502481"><ele></ele><time>2013-7-24T11:17:3Z</time></trkpt>
<trkpt lat="46.617889619" lon="8.029191261"><ele></ele><time>2013-7-24T11:17:6Z</time></trkpt>
<trkpt lat="46.617518803" lon="8.027842445"><ele></ele><time>2013-7-24T11:17:9Z</time></trkpt>
<trkpt lat="46.617498854" lon="8.026484493"><ele></ele><time>2013-7-24T11:17:12Z</time></trkpt>
<trkpt lat="46.618599985" lon="8.025778402"><ele></ele><time>2013-7-24T11:17:15Z</time></trkpt>
<trkpt lat="46.619325439" lon="8.024650449"><ele></ele><time>2013-7-24T11:17:18Z</time></trkpt>
<trkpt lat="46.619320326" lon="8.023893144"><ele></ele><time>2013-7-24T11:17:21Z</time></trkpt>
<trkpt lat="46.619314039" lon="8.023370868"><ele></ele><time>2013-7-24T11:17:24Z</time></trkpt>
<trkpt lat="46.619109688" lon="8.022872480"><ele></ele><time>2013-7-24T11:17:27Z</time></trkpt>
<trkpt lat="46.619381011" lon="8.022588249"><ele></ele><time>2013-7-24T11:17:30Z</time></trkpt>
<trkpt lat="46.619500034" lon="8.022184744"><ele></ele><time>2013-7-24T11:17:33Z</time></trkpt>
<trkpt lat="46.619205661" lon="8.021698510"><ele></ele><time>2013-7-24T11:17:36Z</time></trkpt>
<trkpt lat="46.619458292" lon="8.019782072"><ele></ele><time>2013-7-24T11:17:39Z</time></trkpt>
<trkpt lat="46.619379669" lon="8.019324252"><ele></ele><time>2013-7-24T11:17:42Z</time></trkpt>
<trkpt lat="46.619148161" lon="8.018864840"><ele></ele><time>2013-7-24T11:17:45Z</time></trkpt>
<trkpt lat="46.618919922" lon="8.017752646"><ele></ele><time>2013-7-24T11:17:48Z</time></trkpt>
<trkpt lat="46.618400244" lon="8.017342351"><ele></ele><time>2013-7-24T11:17:51Z</time></trkpt>
<trkpt lat="46.618206203" lon="8.016583035"><ele></ele><time>2013-7-24T11:17:54Z</time></trkpt>
<trkpt lat="46.617758609" lon="8.016147427"><ele></ele><time>2013-7-24T11:17:57Z</time></trkpt>
<trkpt lat="46.617554426" lon="8.015609980"><ele></ele><time>2013-7-24T11:18:0Z</time></trkpt>
<trkpt lat="46.616672399" lon="8.015705030"><ele></ele><time>2013-7-24T11:18:3Z</time></trkpt>
<trkpt lat="46.616101172" lon="8.014811184"><ele></ele><time>2013-7-24T11:18:6Z</time></trkpt>
<trkpt lat="46.616094634" lon="8.014314976"><ele></ele><time>2013-7-24T11:18:9Z</time></trkpt>
<trkpt lat="46.616643984" lon="8.014203329"><ele></ele><time>2013-7-24T11:18:12Z</time></trkpt>
<trkpt lat="46.617457196" lon="8.013493968"><ele></ele><time>2013-7-24T11:18:15Z</time></trkpt>
<trkpt lat="46.617992381" lon="8.012611857"><ele></ele><time>2013-7-24T11:18:18Z</time></trkpt>
<trkpt lat="46.618395885" lon="8.011088613"><ele></ele><time>2013-7-24T11:18:21Z</time></trkpt>
<trkpt lat="46.618264709" lon="8.010343127"><ele></ele><time>2013-7-24T11:18:24Z</time></trkpt>
<trkpt lat="46.617971929" lon="8.009517509"><ele></ele><time>2013-7-24T11:18:27Z</time></trkpt>
<trkpt lat="46.618037727" lon="8.008956844"><ele></ele><time>2013-7-24T11:18:30Z</time></trkpt>
<trkpt lat="46.618078714" lon="8.007951938"><ele></ele><time>2013-7-24T11:18:33Z</time></trkpt>
<trkpt lat="46.618125569" lon="8.007586906"><ele></ele><time>2013-7-24T11:18:36Z</time></trkpt>
<trkpt lat="46.618874324" lon="8.007163955"><ele></ele><time>2013-7-24T11:18:39Z</time></trkpt>
<trkpt lat="46.618993348" lon="8.006747458"><ele></ele><time>2013-7-24T11:18:42Z</time></trkpt>
<trkpt lat="46.618906176" lon="8.006185116"><ele></ele><time>2013-7-24T11:18:45Z</time></trkpt>
<trkpt lat="46.618999466" lon="8.005520264"><ele></ele><time>2013-7-24T11:18:48Z</time></trkpt>
<trkpt lat="46.618840210" lon="8.004983319"><ele></ele><time>2013-7-24T11:18:51Z</time></trkpt>
<trkpt lat="46.618967867" lon="8.004632117"><ele></ele><time>2013-7-24T11:18:54Z</time></trkpt>
<trkpt lat="46.619329546" lon="8.004270354"><ele></ele><time>2013-7-24T11:18:57Z</time></trkpt>
<trkpt lat="46.619704803" lon="8.002968645"><ele></ele><time>2013-7-24T11:19:0Z</time></trkpt>
<trkpt lat="46.619785186" lon="8.001272231"><ele></ele><time>2013-7-24T11:19:3Z</time></trkpt>
<trkpt lat="46.620886903" lon="8.000408979"><ele></ele><time>2013-7-24T11:19:6Z</time></trkpt>
<trkpt lat="46.621678071" lon="8.000508556"><ele></ele><time>2013-7-24T11:19:9Z</time></trkpt>
<trkpt lat="46.621607663" lon="8.000181410"><ele></ele><time>2013-7-24T11:19:12Z</time></trkpt>
<trkpt lat="46.621194519" lon="8.000059621"><ele></ele><time>2013-7-24T11:19:15Z</time></trkpt>
<trkpt lat="46.620711805" lon="7.999427961"><ele></ele><time>2013-7-24T11:19:18Z</time></trkpt>
<trkpt lat="46.619678149" lon="7.999247499"><ele></ele><time>2013-7-24T11:19:21Z</time></trkpt>
<trkpt lat="46.619190322" lon="7.999673299"><ele></ele><time>2013-7-24T11:19:24Z</time></trkpt>
<trkpt lat="46.617694069" lon="8.000271348"><ele></ele><time>2013-7-24T11:19:27Z</time></trkpt>
<trkpt lat="46.618285328" lon="7.998945834"><ele></ele><time>2013-7-24T11:19:30Z</time></trkpt>
<trkpt lat="46.618943894" lon="7.998560937"><ele></ele><time>2013-7-24T11:19:33Z</time></trkpt>
<trkpt lat="46.619310016" lon="7.997285295"><ele></ele><time>2013-7-24T11:19:36Z</time></trkpt>
<trkpt lat="46.621614788" lon="7.995063420"><ele></ele><time>2013-7-24T11:19:39Z</time></trkpt>
<trkpt lat="46.620571576" lon="7.995013548"><ele></ele><time>2013-7-24T11:19:42Z</time></trkpt>
<trkpt lat="46.620158767" lon="7.994800396"><ele></ele><time>2013-7-24T11:19:45Z</time></trkpt>
<trkpt lat="46.619394589" lon="7.994714146"><ele></ele><time>2013-7-24T11:19:48Z</time></trkpt>
<trkpt lat="46.618989157" lon="7.994840546"><ele></ele><time>2013-7-24T11:19:51Z</time></trkpt>
<trkpt lat="46.618378619" lon="7.994599314"><ele></ele><time>2013-7-24T11:19:54Z</time></trkpt>
<trkpt lat="46.616889993" lon="7.995471703"><ele></ele><time>2013-7-24T11:19:57Z</time></trkpt>
<trkpt lat="46.617320487" lon="7.993909484"><ele></ele><time>2013-7-24T11:20:0Z</time></trkpt>
<trkpt lat="46.618359257" lon="7.993032401"><ele></ele><time>2013-7-24T11:20:3Z</time></trkpt>
<trkpt lat="46.618677601" lon="7.992317593"><ele></ele><time>2013-7-24T11:20:6Z</time></trkpt>
<trkpt lat="46.618636865" lon="7.991442438"><ele></ele><time>2013-7-24T11:20:9Z</time></trkpt>
<trkpt lat="46.618996616" lon="7.991446126"><ele></ele><time>2013-7-24T11:20:12Z</time></trkpt>
<trkpt lat="46.619680161" lon="7.989625325"><ele></ele><time>2013-7-24T11:20:15Z</time></trkpt>
<trkpt lat="46.621125368" lon="7.988399724"><ele></ele><time>2013-7-24T11:20:18Z</time></trkpt>
<trkpt lat="46.619444881" lon="7.988056233"><ele></ele><time>2013-7-24T11:20:21Z</time></trkpt>
<trkpt lat="46.619244469" lon="7.986709429"><ele></ele><time>2013-7-24T11:20:24Z</time></trkpt>
<trkpt lat="46.620577611" lon="7.986331237"><ele></ele><time>2013-7-24T11:20:27Z</time></trkpt>
<trkpt lat="46.619322840" lon="7.985378550"><ele></ele><time>2013-7-24T11:20:30Z</time></trkpt>
<trkpt lat="46.620406536" lon="7.984501719"><ele></ele><time>2013-7-24T11:20:33Z</time></trkpt>
<trkpt lat="46.619736571" lon="7.983515756"><ele></ele><time>2013-7-24T11:20:36Z</time></trkpt>
<trkpt lat="46.619258802" lon="7.983719856"><ele></ele><time>2013-7-24T11:20:39Z</time></trkpt>
<trkpt lat="46.619017320" lon="7.983417101"><ele></ele><time>2013-7-24T11:20:42Z</time></trkpt>
<trkpt lat="46.618359592" lon="7.983632432"><ele></ele><time>2013-7-24T11:20:45Z</time></trkpt>
<trkpt lat="46.618080642" lon="7.983655734"><ele></ele><time>2013-7-24T11:20:48Z</time></trkpt>
<trkpt lat="46.617676131" lon="7.983586332"><ele></ele><time>2013-7-24T11:20:51Z</time></trkpt>
<trkpt lat="46.617424255" lon="7.983583817"><ele></ele><time>2013-7-24T11:20:54Z</time></trkpt>
<trkpt lat="46.617044471" lon="7.984010791"><ele></ele><time>2013-7-24T11:20:57Z</time></trkpt>
<trkpt lat="46.616861578" lon="7.984622587"><ele></ele><time>2013-7-24T11:21:0Z</time></trkpt>
<trkpt lat="46.617145976" lon="7.985343514"><ele></ele><time>2013-7-24T11:21:3Z</time></trkpt>
<trkpt lat="46.617142456" lon="7.986087576"><ele></ele><time>2013-7-24T11:21:6Z</time></trkpt>
<trkpt lat="46.617317218" lon="7.987146880"><ele></ele><time>2013-7-24T11:21:9Z</time></trkpt>
<trkpt lat="46.617358625" lon="7.987891445"><ele></ele><time>2013-7-24T11:21:12Z</time></trkpt>
<trkpt lat="46.617609663" lon="7.988063693"><ele></ele><time>2013-7-24T11:21:15Z</time></trkpt>
<trkpt lat="46.617443953" lon="7.988845306"><ele></ele><time>2013-7-24T11:21:18Z</time></trkpt>
<trkpt lat="46.616976410" lon="7.988801384"><ele></ele><time>2013-7-24T11:21:21Z</time></trkpt>
<trkpt lat="46.617107587" lon="7.989586014"><ele></ele><time>2013-7-24T11:21:24Z</time></trkpt>
<trkpt lat="46.616656641" lon="7.989816433"><ele></ele><time>2013-7-24T11:21:27Z</time></trkpt>
<trkpt lat="46.616162863" lon="7.989615602"><ele></ele><time>2013-7-24T11:21:30Z</time></trkpt>
<trkpt lat="46.615621392" lon="7.989962529"><ele></ele><time>2013-7-24T11:21:33Z</time></trkpt>
<trkpt lat="46.615127111" lon="7.989866138"><ele></ele><time>2013-7-24T11:21:36Z</time></trkpt>
<trkpt lat="46.614740957" lon="7.989731608"><ele></ele><time>2013-7-24T11:21:39Z</time></trkpt>
<trkpt lat="46.614468880" lon="7.990185823"><ele></ele><time>2013-7-24T11:21:42Z</time></trkpt>
<trkpt lat="46.614375170" lon="7.990968106"><ele></ele><time>2013-7-24T11:21:45Z</time></trkpt>
<trkpt lat="46.614175010" lon="7.991422992"><ele></ele><time>2013-7-24T11:21:48Z</time></trkpt>
<trkpt lat="46.613797657" lon="7.991327774"><ele></ele><time>2013-7-24T11:21:51Z</time></trkpt>
<trkpt lat="46.613769326" lon="7.991601611"><ele></ele><time>2013-7-24T11:21:54Z</time></trkpt>
<trkpt lat="46.613343777" lon="7.992171664"><ele></ele><time>2013-7-24T11:21:57Z</time></trkpt>
<trkpt lat="46.613287032" lon="7.992745405"><ele></ele><time>2013-7-24T11:22:0Z</time></trkpt>
<trkpt lat="46.612950917" lon="7.993420819"><ele></ele><time>2013-7-24T11:22:3Z</time></trkpt>
<trkpt lat="46.612895345" lon="7.993733548"><ele></ele><time>2013-7-24T11:22:6Z</time></trkpt>
<trkpt lat="46.612768192" lon="7.993993303"><ele></ele><time>2013-7-24T11:22:9Z</time></trkpt>
<trkpt lat="46.612451943" lon="7.994277282"><ele></ele><time>2013-7-24T11:22:12Z</time></trkpt>
<trkpt lat="46.612158073" lon="7.993660709"><ele></ele><time>2013-7-24T11:22:15Z</time></trkpt>
<trkpt lat="46.611871580" lon="7.993383603"><ele></ele><time>2013-7-24T11:22:18Z</time></trkpt>
<trkpt lat="46.611574693" lon="7.993380586"><ele></ele><time>2013-7-24T11:22:21Z</time></trkpt>
<trkpt lat="46.611554492" lon="7.993837232"><ele></ele><time>2013-7-24T11:22:24Z</time></trkpt>
<trkpt lat="46.611695141" lon="7.994517507"><ele></ele><time>2013-7-24T11:22:27Z</time></trkpt>
<trkpt lat="46.611701511" lon="7.995052775"><ele></ele><time>2013-7-24T11:22:30Z</time></trkpt>
<trkpt lat="46.611456592" lon="7.995468015"><ele></ele><time>2013-7-24T11:22:33Z</time></trkpt>
<trkpt lat="46.611231035" lon="7.995596258"><ele></ele><time>2013-7-24T11:22:36Z</time></trkpt>
<trkpt lat="46.610962143" lon="7.995397607"><ele></ele><time>2013-7-24T11:22:39Z</time></trkpt>
<trkpt lat="46.610754021" lon="7.995643532"><ele></ele><time>2013-7-24T11:22:42Z</time></trkpt>
<trkpt lat="46.610770449" lon="7.995970007"><ele></ele><time>2013-7-24T11:22:45Z</time></trkpt>
<trkpt lat="46.610606918" lon="7.996294722"><ele></ele><time>2013-7-24T11:22:48Z</time></trkpt>
<trkpt lat="46.610507006" lon="7.996489434"><ele></ele><time>2013-7-24T11:22:51Z</time></trkpt>
<trkpt lat="46.610747734" lon="7.996935770"><ele></ele><time>2013-7-24T11:22:54Z</time></trkpt>
<trkpt lat="46.610909002" lon="7.997067953"><ele></ele><time>2013-7-24T11:22:57Z</time></trkpt>
<trkpt lat="46.610862734" lon="7.997328546"><ele></ele><time>2013-7-24T11:23:0Z</time></trkpt>
<trkpt lat="46.610637093" lon="7.997482857"><ele></ele><time>2013-7-24T11:23:3Z</time></trkpt>
<trkpt lat="46.610519495" lon="7.997612190"><ele></ele><time>2013-7-24T11:23:6Z</time></trkpt>
<trkpt lat="46.610409776" lon="7.997976551"><ele></ele><time>2013-7-24T11:23:9Z</time></trkpt>
<trkpt lat="46.610200815" lon="7.998392126"><ele></ele><time>2013-7-24T11:23:12Z</time></trkpt>
<trkpt lat="46.610270636" lon="7.998823626"><ele></ele><time>2013-7-24T11:23:15Z</time></trkpt>
<trkpt lat="46.610268792" lon="7.999215228"><ele></ele><time>2013-7-24T11:23:18Z</time></trkpt>
<trkpt lat="46.610239204" lon="7.999737086"><ele></ele><time>2013-7-24T11:23:21Z</time></trkpt>
<trkpt lat="46.610057652" lon="8.000061465"><ele></ele><time>2013-7-24T11:23:24Z</time></trkpt>
<trkpt lat="46.609724555" lon="8.000123324"><ele></ele><time>2013-7-24T11:23:27Z</time></trkpt>
<trkpt lat="46.609382993" lon="8.000054508"><ele></ele><time>2013-7-24T11:23:30Z</time></trkpt>
<trkpt lat="46.608932465" lon="8.000206472"><ele></ele><time>2013-7-24T11:23:33Z</time></trkpt>
<trkpt lat="46.608824842" lon="8.000140088"><ele></ele><time>2013-7-24T11:23:36Z</time></trkpt>
<trkpt lat="46.608644798" lon="8.000177387"><ele></ele><time>2013-7-24T11:23:39Z</time></trkpt>
<trkpt lat="46.608390659" lon="8.000631602"><ele></ele><time>2013-7-24T11:23:42Z</time></trkpt>
<trkpt lat="46.608209359" lon="8.000916839"><ele></ele><time>2013-7-24T11:23:45Z</time></trkpt>
<trkpt lat="46.608009953" lon="8.001214983"><ele></ele><time>2013-7-24T11:23:48Z</time></trkpt>
<trkpt lat="46.607667636" lon="8.001302825"><ele></ele><time>2013-7-24T11:23:51Z</time></trkpt>
<trkpt lat="46.607336132" lon="8.001038292"><ele></ele><time>2013-7-24T11:23:54Z</time></trkpt>
<trkpt lat="46.607157513" lon="8.000775436"><ele></ele><time>2013-7-24T11:23:57Z</time></trkpt>
<trkpt lat="46.606933298" lon="8.000642583"><ele></ele><time>2013-7-24T11:24:0Z</time></trkpt>
<trkpt lat="46.606484950" lon="8.000350725"><ele></ele><time>2013-7-24T11:24:3Z</time></trkpt>
<trkpt lat="46.605964769" lon="8.000019053"><ele></ele><time>2013-7-24T11:24:6Z</time></trkpt>
<trkpt lat="46.605873406" lon="8.000305211"><ele></ele><time>2013-7-24T11:24:9Z</time></trkpt>
<trkpt lat="46.605854630" lon="8.000474693"><ele></ele><time>2013-7-24T11:24:12Z</time></trkpt>
<trkpt lat="46.606122516" lon="8.000869062"><ele></ele><time>2013-7-24T11:24:15Z</time></trkpt>
<trkpt lat="46.606273223" lon="8.001327468"><ele></ele><time>2013-7-24T11:24:18Z</time></trkpt>
<trkpt lat="46.606317395" lon="8.001484545"><ele></ele><time>2013-7-24T11:24:21Z</time></trkpt>
<trkpt lat="46.606586454" lon="8.001657045"><ele></ele><time>2013-7-24T11:24:24Z</time></trkpt>
<trkpt lat="46.606700784" lon="8.002180327"><ele></ele><time>2013-7-24T11:24:27Z</time></trkpt>
<trkpt lat="46.607194226" lon="8.002446536"><ele></ele><time>2013-7-24T11:24:30Z</time></trkpt>
<trkpt lat="46.607416179" lon="8.003036287"><ele></ele><time>2013-7-24T11:24:33Z</time></trkpt>
<trkpt lat="46.607703092" lon="8.003235022"><ele></ele><time>2013-7-24T11:24:36Z</time></trkpt>
<trkpt lat="46.608107770" lon="8.003265364"><ele></ele><time>2013-7-24T11:24:39Z</time></trkpt>
<trkpt lat="46.608104166" lon="8.003983274"><ele></ele><time>2013-7-24T11:24:42Z</time></trkpt>
<trkpt lat="46.607949771" lon="8.004281837"><ele></ele><time>2013-7-24T11:24:45Z</time></trkpt>
<trkpt lat="46.607814152" lon="8.004411003"><ele></ele><time>2013-7-24T11:24:48Z</time></trkpt>
<trkpt lat="46.607785905" lon="8.004671764"><ele></ele><time>2013-7-24T11:24:51Z</time></trkpt>
<trkpt lat="46.608009031" lon="8.005026486"><ele></ele><time>2013-7-24T11:24:54Z</time></trkpt>
<trkpt lat="46.608006768" lon="8.005483383"><ele></ele><time>2013-7-24T11:24:57Z</time></trkpt>
<trkpt lat="46.608138448" lon="8.006137339"><ele></ele><time>2013-7-24T11:25:0Z</time></trkpt>
<trkpt lat="46.608072063" lon="8.006828511"><ele></ele><time>2013-7-24T11:25:3Z</time></trkpt>
<trkpt lat="46.608427959" lon="8.007615404"><ele></ele><time>2013-7-24T11:25:6Z</time></trkpt>
<trkpt lat="46.608596100" lon="8.008165425"><ele></ele><time>2013-7-24T11:25:9Z</time></trkpt>
<trkpt lat="46.608648654" lon="8.008453175"><ele></ele><time>2013-7-24T11:25:12Z</time></trkpt>
<trkpt lat="46.608639769" lon="8.008426940"><ele></ele><time>2013-7-24T11:25:15Z</time></trkpt>
<trkpt lat="46.608811347" lon="8.010099549"><ele></ele><time>2013-7-24T11:25:18Z</time></trkpt>
<trkpt lat="46.609641491" lon="8.009586241"><ele></ele><time>2013-7-24T11:25:21Z</time></trkpt>
<trkpt lat="46.609997051" lon="8.010438429"><ele></ele><time>2013-7-24T11:25:24Z</time></trkpt>
<trkpt lat="46.609473182" lon="8.012652006"><ele></ele><time>2013-7-24T11:25:27Z</time></trkpt>
<trkpt lat="46.608570535" lon="8.013255922"><ele></ele><time>2013-7-24T11:25:30Z</time></trkpt>
<trkpt lat="46.609602347" lon="8.013789011"><ele></ele><time>2013-7-24T11:25:33Z</time></trkpt>
<trkpt lat="46.609190796" lon="8.015129110"><ele></ele><time>2013-7-24T11:25:36Z</time></trkpt>
<trkpt lat="46.609505452" lon="8.015158614"><ele></ele><time>2013-7-24T11:25:39Z</time></trkpt>
<trkpt lat="46.610547490" lon="8.013668563"><ele></ele><time>2013-7-24T11:25:42Z</time></trkpt>
<trkpt lat="46.610810934" lon="8.014950575"><ele></ele><time>2013-7-24T11:25:45Z</time></trkpt>
<trkpt lat="46.611259365" lon="8.015216449"><ele></ele><time>2013-7-24T11:25:48Z</time></trkpt>
<trkpt lat="46.611490874" lon="8.017464224"><ele></ele><time>2013-7-24T11:25:51Z</time></trkpt>
<trkpt lat="46.612035027" lon="8.016595440"><ele></ele><time>2013-7-24T11:25:54Z</time></trkpt>
<trkpt lat="46.611930672" lon="8.015876357"><ele></ele><time>2013-7-24T11:25:57Z</time></trkpt>
<trkpt lat="46.612396035" lon="8.016364267"><ele></ele><time>2013-7-24T11:26:0Z</time></trkpt>
<trkpt lat="46.613234896" lon="8.015916338"><ele></ele><time>2013-7-24T11:26:3Z</time></trkpt>
<trkpt lat="46.613473780" lon="8.016702142"><ele></ele><time>2013-7-24T11:26:6Z</time></trkpt>
<trkpt lat="46.613153676" lon="8.017743090"><ele></ele><time>2013-7-24T11:26:9Z</time></trkpt>
<trkpt lat="46.613630187" lon="8.017787347"><ele></ele><time>2013-7-24T11:26:12Z</time></trkpt>
<trkpt lat="46.614362346" lon="8.018865678"><ele></ele><time>2013-7-24T11:26:15Z</time></trkpt>
<trkpt lat="46.614306103" lon="8.021084368"><ele></ele><time>2013-7-24T11:26:18Z</time></trkpt>
<trkpt lat="46.613793466" lon="8.021052685"><ele></ele><time>2013-7-24T11:26:21Z</time></trkpt>
<trkpt lat="46.613719035" lon="8.021534979"><ele></ele><time>2013-7-24T11:26:24Z</time></trkpt>
<trkpt lat="46.614778591" lon="8.021911914"><ele></ele><time>2013-7-24T11:26:27Z</time></trkpt>
<trkpt lat="46.615656344" lon="8.020903068"><ele></ele><time>2013-7-24T11:26:30Z</time></trkpt>
<trkpt lat="46.616151463" lon="8.020843137"><ele></ele><time>2013-7-24T11:26:33Z</time></trkpt>
<trkpt lat="46.616535606" lon="8.021369437"><ele></ele><time>2013-7-24T11:26:36Z</time></trkpt>
<trkpt lat="46.616706597" lon="8.023107676"><ele></ele><time>2013-7-24T11:26:39Z</time></trkpt>
<trkpt lat="46.617766740" lon="8.021617709"><ele></ele><time>2013-7-24T11:26:42Z</time></trkpt>
<trkpt lat="46.618306451" lon="8.021623576"><ele></ele><time>2013-7-24T11:26:45Z</time></trkpt>
<trkpt lat="46.618602332" lon="8.021822562"><ele></ele><time>2013-7-24T11:26:48Z</time></trkpt>
<trkpt lat="46.618643235" lon="8.022606354"><ele></ele><time>2013-7-24T11:26:51Z</time></trkpt>
<trkpt lat="46.617980562" lon="8.023774205"><ele></ele><time>2013-7-24T11:26:54Z</time></trkpt>
<trkpt lat="46.618768293" lon="8.024526900"><ele></ele><time>2013-7-24T11:26:57Z</time></trkpt>
<trkpt lat="46.619311105" lon="8.023945279"><ele></ele><time>2013-7-24T11:27:0Z</time></trkpt>
<trkpt lat="46.619325187" lon="8.024702668"><ele></ele><time>2013-7-24T11:27:3Z</time></trkpt>
<trkpt lat="46.618600069" lon="8.025765326"><ele></ele><time>2013-7-24T11:27:6Z</time></trkpt>
<trkpt lat="46.617543865" lon="8.026471920"><ele></ele><time>2013-7-24T11:27:9Z</time></trkpt>
<trkpt lat="46.617527604" lon="8.027881756"><ele></ele><time>2013-7-24T11:27:12Z</time></trkpt>
<trkpt lat="46.617889283" lon="8.029256556"><ele></ele><time>2013-7-24T11:27:15Z</time></trkpt>
<trkpt lat="46.618886311" lon="8.029554617"><ele></ele><time>2013-7-24T11:27:18Z</time></trkpt>
<trkpt lat="46.619497435" lon="8.029665761"><ele></ele><time>2013-7-24T11:27:21Z</time></trkpt>
<trkpt lat="46.619620146" lon="8.030293817"><ele></ele><time>2013-7-24T11:27:24Z</time></trkpt>
<trkpt lat="46.620644163" lon="8.030579137"><ele></ele><time>2013-7-24T11:27:27Z</time></trkpt>
<trkpt lat="46.620917665" lon="8.029877152"><ele></ele><time>2013-7-24T11:27:30Z</time></trkpt>
<trkpt lat="46.621180605" lon="8.029488316"><ele></ele><time>2013-7-24T11:27:33Z</time></trkpt>
<trkpt lat="46.621412281" lon="8.029908668"><ele></ele><time>2013-7-24T11:27:36Z</time></trkpt>
<trkpt lat="46.621654602" lon="8.030015789"><ele></ele><time>2013-7-24T11:27:39Z</time></trkpt>
<trkpt lat="46.621650914" lon="8.030720791"><ele></ele><time>2013-7-24T11:27:42Z</time></trkpt>
<trkpt lat="46.622389695" lon="8.030506885"><ele></ele><time>2013-7-24T11:27:45Z</time></trkpt>
<trkpt lat="46.622703178" lon="8.030771418"><ele></ele><time>2013-7-24T11:27:48Z</time></trkpt>
<trkpt lat="46.622931752" lon="8.031792333"><ele></ele><time>2013-7-24T11:27:51Z</time></trkpt>
<trkpt lat="46.623260155" lon="8.032644689"><ele></ele><time>2013-7-24T11:27:54Z</time></trkpt>
<trkpt lat="46.623857114" lon="8.033761075"><ele></ele><time>2013-7-24T11:27:57Z</time></trkpt>
<trkpt lat="46.623466937" lon="8.034396591"><ele></ele><time>2013-7-24T11:28:0Z</time></trkpt>
<trkpt lat="46.623519324" lon="8.034697417"><ele></ele><time>2013-7-24T11:28:3Z</time></trkpt>
<trkpt lat="46.624364555" lon="8.034772016"><ele></ele><time>2013-7-24T11:28:6Z</time></trkpt>
<trkpt lat="46.624558344" lon="8.033834081"><ele></ele><time>2013-7-24T11:28:9Z</time></trkpt>
</trkseg></trk></gpx>